Terminal Aerodrome Forecast
Issued by NWS

Home | Current Version | Previous Version | Text Only | Print | Product List | Glossary Off
Versions: 1 2 3 4 5 6 7 8 9 10 11 12 13 14 15 16 17 18 19

000
FTUS43 KMPX 190845 AAA
TAFAXN
TAF AMD
KAXN 190845Z 1909/2006 12013KT 4SM RA BR SCT006 OVC012
      TEMPO 1909/1912 BKN006
     FM191300 31013G21KT P6SM VCSH OVC015
     FM191600 31015G24KT P6SM SCT030 BKN050
     FM200100 32011KT P6SM BKN100=

USA.gov is the U.S. government's official web portal to all federal, state and local government web resources and services.